createdAt,value
2023-01-09T00:00:30.356Z,43.30
2023-01-09T00:01:36.554Z,33.40
2023-01-09T00:02:40.674Z,35.03
2023-01-09T00:03:43.101Z,37.47
2023-01-09T00:04:44.585Z,38.42
2023-01-09T00:05:46.098Z,36.38
2023-01-09T00:06:54.950Z,41.40
2023-01-09T00:07:56.428Z,49.17
2023-01-09T00:08:57.917Z,51.63
2023-01-09T00:09:59.455Z,52.65
2023-01-09T00:11:01.008Z,44.30
2023-01-09T00:12:03.128Z,39.83
2023-01-09T00:14:05.947Z,39.97
2023-01-09T00:15:08.096Z,44.83
2023-01-09T00:17:11.015Z,52.67
2023-01-09T00:18:13.018Z,50.72
2023-01-09T00:19:14.733Z,59.30
2023-01-09T00:20:16.331Z,56.60
2023-01-09T00:21:17.743Z,59.67
2023-01-09T00:22:19.214Z,51.65
2023-01-09T00:23:20.635Z,57.83
2023-01-09T00:24:22.087Z,55.65
2023-01-09T00:25:25.274Z,46.83
2023-01-09T00:26:26.742Z,48.40
2023-01-09T00:27:32.107Z,49.15
2023-01-09T00:28:35.000Z,41.83
2023-01-09T00:29:36.531Z,45.45
2023-01-09T00:30:38.001Z,43.03
2023-01-09T00:31:39.482Z,46.20
2023-01-09T00:32:41.010Z,49.05
2023-01-09T00:33:57.802Z,41.85
2023-01-09T00:34:59.212Z,43.92
2023-01-09T00:36:00.706Z,41.70
2023-01-09T00:37:02.120Z,39.15
2023-01-09T00:38:04.516Z,39.92
2023-01-09T00:39:08.430Z,45.30
2023-01-09T00:40:11.229Z,39.55
2023-01-09T00:41:16.946Z,39.78
2023-01-09T00:42:22.469Z,41.53
2023-01-09T00:43:30.381Z,47.10
2023-01-09T00:44:37.262Z,54.72
2023-01-09T00:45:38.921Z,52.25
2023-01-09T00:46:45.217Z,54.67
2023-01-09T00:47:52.521Z,46.10
2023-01-09T00:48:54.005Z,44.42
2023-01-09T00:49:58.556Z,49.15
2023-01-09T00:51:01.639Z,45.72
2023-01-09T00:52:09.597Z,38.58
2023-01-09T00:53:15.535Z,42.70
2023-01-09T00:54:19.141Z,40.83
2023-01-09T00:55:20.935Z,42.15
2023-01-09T00:56:22.948Z,43.13
2023-01-09T00:57:24.366Z,34.75
2023-01-09T00:58:25.852Z,38.45
2023-01-09T00:59:28.413Z,42.63
2023-01-09T01:00:30.248Z,44.33
2023-01-09T01:01:31.854Z,49.38
2023-01-09T01:02:33.320Z,46.22
2023-01-09T01:03:34.776Z,44.50
2023-01-09T01:04:54.916Z,39.33
2023-01-09T01:07:34.998Z,37.20
2023-01-09T01:09:39.716Z,33.33
2023-01-09T01:10:41.916Z,36.67
2023-01-09T01:11:43.344Z,38.38
2023-01-09T01:12:44.809Z,44.45
2023-01-09T01:13:46.277Z,48.85
2023-01-09T01:14:47.719Z,43.38
2023-01-09T01:15:49.174Z,46.92
2023-01-09T01:16:50.644Z,43.25
2023-01-09T01:17:52.079Z,50.28
2023-01-09T01:18:53.473Z,46.85
2023-01-09T01:19:55.279Z,52.83
2023-01-09T01:20:56.727Z,56.05
2023-01-09T01:22:00.787Z,45.17
2023-01-09T01:23:02.253Z,46.70
2023-01-09T01:24:03.902Z,40.35
2023-01-09T01:25:05.925Z,42.30
2023-01-09T01:26:15.804Z,46.85
2023-01-09T01:27:17.285Z,40.58
2023-01-09T01:28:19.451Z,39.72
2023-01-09T01:30:22.446Z,40.35
2023-01-09T01:31:23.861Z,38.03
2023-01-09T01:32:27.801Z,39.00
2023-01-09T01:33:29.342Z,39.55
2023-01-09T01:34:30.902Z,43.20
2023-01-09T01:35:33.851Z,45.10
2023-01-09T01:36:35.359Z,44.85
2023-01-09T01:37:37.714Z,39.92
2023-01-09T01:38:39.191Z,43.33
2023-01-09T01:39:40.856Z,40.80
2023-01-09T01:40:42.273Z,50.20
2023-01-09T01:41:47.092Z,46.58
2023-01-09T01:42:51.115Z,39.58
2023-01-09T01:43:55.282Z,42.92
2023-01-09T01:45:04.216Z,40.50
2023-01-09T01:46:05.716Z,48.10
2023-01-09T01:47:07.577Z,42.75
2023-01-09T01:48:29.981Z,44.10
2023-01-09T01:49:31.543Z,37.38
2023-01-09T01:50:44.982Z,41.60
2023-01-09T01:51:51.682Z,43.65
2023-01-09T01:53:06.312Z,39.28
2023-01-09T01:54:13.170Z,36.20
2023-01-09T01:55:17.247Z,45.42
2023-01-09T01:56:27.433Z,39.63
2023-01-09T01:57:30.258Z,33.00
2023-01-09T01:58:36.022Z,33.05
2023-01-09T01:59:40.932Z,36.67
2023-01-09T02:00:46.533Z,44.35
2023-01-09T02:01:52.237Z,36.08
2023-01-09T02:02:53.968Z,38.60
2023-01-09T02:03:58.511Z,42.45
2023-01-09T02:05:04.746Z,45.10
2023-01-09T02:06:06.830Z,45.72
2023-01-09T02:08:10.920Z,42.72
2023-01-09T02:09:17.824Z,43.97
2023-01-09T02:10:23.337Z,50.30
2023-01-09T02:11:24.964Z,50.70
2023-01-09T02:12:27.832Z,44.92
2023-01-09T02:13:30.364Z,48.83
2023-01-09T02:14:32.428Z,63.47
2023-01-09T02:15:52.588Z,53.33
2023-01-09T02:17:06.248Z,49.05
2023-01-09T02:18:19.575Z,49.88
2023-01-09T02:19:45.477Z,51.33
2023-01-09T02:20:58.954Z,58.88
2023-01-09T02:22:35.817Z,63.65
2023-01-09T02:24:05.546Z,59.08
2023-01-09T02:25:25.555Z,57.85
2023-01-09T02:26:52.968Z,62.95
2023-01-09T02:28:03.276Z,58.75
2023-01-09T02:29:26.126Z,73.07
2023-01-09T02:30:56.877Z,69.80
2023-01-09T02:32:22.945Z,75.43
2023-01-09T02:33:53.036Z,64.45
2023-01-09T02:35:09.799Z,66.93
2023-01-09T02:36:17.273Z,57.58
2023-01-09T02:37:41.326Z,55.28
2023-01-09T02:38:53.411Z,63.70
2023-01-09T02:40:07.597Z,82.60
2023-01-09T02:42:19.425Z,64.45
2023-01-09T02:43:21.277Z,64.28
2023-01-09T02:44:29.660Z,63.35
2023-01-09T02:45:31.205Z,67.43
2023-01-09T02:46:32.681Z,79.70
2023-01-09T02:47:39.483Z,78.72
2023-01-09T02:48:43.616Z,82.93
2023-01-09T02:49:55.065Z,80.97
2023-01-09T02:51:18.863Z,80.95
2023-01-09T02:52:23.196Z,71.05
2023-01-09T02:53:50.439Z,71.40
2023-01-09T02:55:02.609Z,71.10
2023-01-09T02:56:28.420Z,63.63
2023-01-09T02:57:47.678Z,67.97
2023-01-09T02:58:57.935Z,79.20
2023-01-09T03:00:25.996Z,73.43
2023-01-09T03:01:41.520Z,65.93
2023-01-09T03:03:03.730Z,71.05
2023-01-09T03:04:16.313Z,60.42
2023-01-09T03:05:25.387Z,62.03
2023-01-09T03:06:57.347Z,63.95
2023-01-09T03:08:06.671Z,59.63
2023-01-09T03:09:15.178Z,77.38
2023-01-09T03:10:26.671Z,68.13
2023-01-09T03:11:34.643Z,81.45
2023-01-09T03:12:41.426Z,69.10
2023-01-09T03:13:56.094Z,92.68
2023-01-09T03:15:03.255Z,78.05
2023-01-09T03:16:07.926Z,76.10
2023-01-09T03:17:13.874Z,74.40
2023-01-09T03:18:21.586Z,75.32
2023-01-09T03:19:26.714Z,71.13
2023-01-09T03:20:31.042Z,76.82
2023-01-09T03:21:33.804Z,85.55
2023-01-09T03:22:35.340Z,68.78
2023-01-09T03:23:52.834Z,73.70
2023-01-09T03:24:54.270Z,67.00
2023-01-09T03:25:55.715Z,61.35
2023-01-09T03:26:57.113Z,62.38
2023-01-09T03:28:03.504Z,61.95
2023-01-09T03:29:05.058Z,53.80
2023-01-09T03:30:07.136Z,56.55
2023-01-09T03:32:10.070Z,48.20
2023-01-09T03:33:11.564Z,49.15
2023-01-09T03:34:13.016Z,62.72
2023-01-09T03:35:14.446Z,59.22
2023-01-09T03:36:17.482Z,55.65
2023-01-09T03:37:18.899Z,49.55
2023-01-09T03:38:20.317Z,41.88
2023-01-09T03:39:21.876Z,48.55
2023-01-09T03:40:23.327Z,41.65
2023-01-09T03:41:24.779Z,47.50
2023-01-09T03:42:26.198Z,45.90
2023-01-09T03:43:27.703Z,47.95
2023-01-09T03:44:29.114Z,47.00
2023-01-09T03:45:30.652Z,53.80
2023-01-09T03:46:32.148Z,41.70
2023-01-09T03:47:33.578Z,46.72
2023-01-09T03:48:35.096Z,51.80
2023-01-09T03:49:36.497Z,48.35
2023-01-09T03:50:37.970Z,46.80
2023-01-09T03:51:39.423Z,44.20
2023-01-09T03:52:41.315Z,45.33
2023-01-09T03:53:42.734Z,44.47
2023-01-09T03:54:44.118Z,42.47
2023-01-09T03:55:47.658Z,44.15
2023-01-09T03:56:50.169Z,39.22
2023-01-09T03:57:52.860Z,41.55
2023-01-09T03:58:54.378Z,37.47
2023-01-09T03:59:55.785Z,39.90
2023-01-09T04:00:59.816Z,35.78
2023-01-09T04:02:03.720Z,38.08
2023-01-09T04:03:05.603Z,38.95
2023-01-09T04:04:07.181Z,32.40
2023-01-09T04:05:08.999Z,36.95
2023-01-09T04:06:10.499Z,33.78
2023-01-09T04:07:11.980Z,36.33
2023-01-09T04:08:14.124Z,36.50
2023-01-09T04:10:17.629Z,36.42
2023-01-09T04:11:19.108Z,35.55
2023-01-09T04:12:20.541Z,35.97
2023-01-09T04:13:22.487Z,33.28
2023-01-09T04:14:23.974Z,35.58
2023-01-09T04:15:25.523Z,32.55
2023-01-09T04:16:27.013Z,36.05
2023-01-09T04:17:28.492Z,33.78
2023-01-09T04:18:29.995Z,36.00
2023-01-09T04:19:31.623Z,34.15
2023-01-09T04:20:33.253Z,35.53
2023-01-09T04:21:34.837Z,37.75
2023-01-09T04:22:36.238Z,34.83
2023-01-09T04:23:37.648Z,38.80
2023-01-09T04:24:39.139Z,36.35
2023-01-09T04:25:40.584Z,39.63
2023-01-09T04:26:43.288Z,37.88
2023-01-09T04:27:44.705Z,35.90
2023-01-09T04:28:46.184Z,40.83
2023-01-09T04:29:47.788Z,37.50
2023-01-09T04:30:49.214Z,32.20
2023-01-09T04:31:50.718Z,37.08
2023-01-09T04:32:52.416Z,36.60
2023-01-09T04:33:55.253Z,36.10
2023-01-09T04:34:59.838Z,36.33
2023-01-09T04:36:03.982Z,33.97
2023-01-09T04:37:05.452Z,37.83
2023-01-09T04:38:06.912Z,39.58
2023-01-09T04:39:08.780Z,36.22
2023-01-09T04:40:11.966Z,39.72
2023-01-09T04:41:33.371Z,38.80
2023-01-09T04:42:34.928Z,37.90
2023-01-09T04:43:36.344Z,36.35
2023-01-09T04:44:37.922Z,36.50
2023-01-09T04:45:39.516Z,36.83
2023-01-09T04:46:41.066Z,36.45
2023-01-09T04:47:42.824Z,39.63
2023-01-09T04:48:44.268Z,35.25
2023-01-09T04:49:45.705Z,38.42
2023-01-09T04:50:47.173Z,36.47
2023-01-09T04:51:49.149Z,35.13
2023-01-09T04:52:53.249Z,38.22
2023-01-09T04:53:54.675Z,33.88
2023-01-09T04:54:56.061Z,36.80
2023-01-09T04:55:57.459Z,39.08
2023-01-09T04:56:58.854Z,37.22
2023-01-09T04:58:00.286Z,34.80
2023-01-09T04:59:01.882Z,38.88
2023-01-09T05:00:05.255Z,36.90
2023-01-09T05:01:06.758Z,37.78
2023-01-09T05:02:08.473Z,39.22
2023-01-09T05:03:10.201Z,34.42
2023-01-09T05:04:12.029Z,38.92
2023-01-09T05:05:13.478Z,37.35
2023-01-09T05:06:17.955Z,37.70
2023-01-09T05:07:19.468Z,38.90
2023-01-09T05:08:20.950Z,37.10
2023-01-09T05:09:22.806Z,38.28
2023-01-09T05:10:24.268Z,42.70
2023-01-09T05:11:25.826Z,41.72
2023-01-09T05:12:27.415Z,40.47
2023-01-09T05:13:28.894Z,41.00
2023-01-09T05:14:30.345Z,45.65
2023-01-09T05:15:31.758Z,39.72
2023-01-09T05:16:33.233Z,41.85
2023-01-09T05:17:35.144Z,46.80
2023-01-09T05:18:37.304Z,42.15
2023-01-09T05:19:39.297Z,44.90
2023-01-09T05:20:40.693Z,44.33
2023-01-09T05:21:42.088Z,43.55
2023-01-09T05:22:43.515Z,40.38
2023-01-09T05:23:44.903Z,41.10
2023-01-09T05:24:46.431Z,43.50
2023-01-09T05:25:47.841Z,43.15
2023-01-09T05:26:49.265Z,42.83
2023-01-09T05:27:50.680Z,40.65
2023-01-09T05:28:52.837Z,44.97
2023-01-09T05:29:54.251Z,45.00
2023-01-09T05:30:58.052Z,48.10
2023-01-09T05:31:59.481Z,50.15
2023-01-09T05:33:00.948Z,48.33
2023-01-09T05:34:02.390Z,45.85
2023-01-09T05:35:04.034Z,53.67
2023-01-09T05:36:05.918Z,54.08
2023-01-09T05:37:07.413Z,47.72
2023-01-09T05:38:09.998Z,48.78
2023-01-09T05:39:11.432Z,45.00
2023-01-09T05:40:13.239Z,45.33
2023-01-09T05:41:14.707Z,49.00
2023-01-09T05:42:16.335Z,46.13
2023-01-09T05:43:17.881Z,46.97
2023-01-09T05:44:19.326Z,47.30
2023-01-09T05:45:20.750Z,45.03
2023-01-09T05:46:22.573Z,43.08
2023-01-09T05:47:24.065Z,45.25
2023-01-09T05:48:25.766Z,47.80
2023-01-09T05:49:27.180Z,49.92
2023-01-09T05:50:28.871Z,46.50
2023-01-09T05:51:31.825Z,46.47
2023-01-09T05:52:33.305Z,48.30
2023-01-09T05:53:34.739Z,55.50
2023-01-09T05:54:36.180Z,61.67
2023-01-09T05:55:37.610Z,58.50
2023-01-09T05:56:39.004Z,46.28
2023-01-09T05:57:40.902Z,48.63
2023-01-09T05:58:42.476Z,51.97
2023-01-09T05:59:43.947Z,55.35
2023-01-09T06:00:45.368Z,56.92
2023-01-09T06:01:46.850Z,46.72
2023-01-09T06:02:48.341Z,46.47
2023-01-09T06:03:49.812Z,52.00
2023-01-09T06:04:51.280Z,74.28
2023-01-09T06:05:52.729Z,115.45
2023-01-09T06:06:54.121Z,139.70
2023-01-09T06:07:55.580Z,60.92
2023-01-09T06:08:57.023Z,44.83
2023-01-09T06:09:58.403Z,47.90
2023-01-09T06:10:59.834Z,51.13
2023-01-09T06:12:01.283Z,45.03
2023-01-09T06:13:02.718Z,58.47
2023-01-09T06:14:05.424Z,111.28
2023-01-09T06:15:08.980Z,140.57
2023-01-09T06:16:10.767Z,165.48
2023-01-09T06:17:12.235Z,121.95
2023-01-09T06:18:13.659Z,114.07
2023-01-09T06:19:15.483Z,103.55
2023-01-09T06:20:17.266Z,127.53
2023-01-09T06:21:18.813Z,146.63
2023-01-09T06:22:23.055Z,51.47
2023-01-09T06:23:26.430Z,57.15
2023-01-09T06:24:27.831Z,64.07
2023-01-09T06:25:29.302Z,49.30
2023-01-09T06:26:31.248Z,53.40
2023-01-09T06:27:32.658Z,58.95
2023-01-09T06:28:34.105Z,82.82
2023-01-09T06:29:35.581Z,61.28
2023-01-09T06:30:37.003Z,47.47
2023-01-09T06:31:38.432Z,45.33
2023-01-09T06:32:39.885Z,61.30
2023-01-09T06:33:41.498Z,67.55
2023-01-09T06:34:43.039Z,50.88
2023-01-09T06:35:44.630Z,53.42
2023-01-09T06:36:46.071Z,53.10
2023-01-09T06:37:48.707Z,51.38
2023-01-09T06:38:50.171Z,57.00
2023-01-09T06:39:51.716Z,53.83
2023-01-09T06:40:53.169Z,53.22
2023-01-09T06:41:54.659Z,44.40
2023-01-09T06:42:56.144Z,49.38
2023-01-09T06:43:57.547Z,48.83
2023-01-09T06:44:58.943Z,49.58
2023-01-09T06:46:00.431Z,44.33
2023-01-09T06:47:04.849Z,57.47
2023-01-09T06:48:06.505Z,57.53
2023-01-09T06:49:09.941Z,49.97
2023-01-09T06:50:12.270Z,51.50
2023-01-09T06:51:13.658Z,47.85
2023-01-09T06:52:15.088Z,47.03
2023-01-09T06:53:16.530Z,49.40
2023-01-09T06:54:18.800Z,52.90
2023-01-09T06:55:26.314Z,53.35
2023-01-09T06:56:27.769Z,46.45
2023-01-09T06:57:29.296Z,50.05
2023-01-09T06:58:33.657Z,50.33
2023-01-09T06:59:35.085Z,47.08
2023-01-09T07:00:38.582Z,44.42
2023-01-09T07:01:40.698Z,41.30
2023-01-09T07:02:42.312Z,42.13
2023-01-09T07:03:44.386Z,47.20
2023-01-09T07:05:47.510Z,42.60
2023-01-09T07:06:49.640Z,41.65
2023-01-09T07:08:52.817Z,48.40
2023-01-09T07:09:54.261Z,55.75
2023-01-09T07:10:55.682Z,63.75
2023-01-09T07:11:57.087Z,54.10
2023-01-09T07:12:58.577Z,48.88
2023-01-09T07:13:59.999Z,54.53
2023-01-09T07:15:01.589Z,54.22
2023-01-09T07:16:05.371Z,56.50
2023-01-09T07:17:07.039Z,51.33
2023-01-09T07:18:08.512Z,46.03
2023-01-09T07:19:09.935Z,52.72
2023-01-09T07:20:11.805Z,49.45
2023-01-09T07:21:13.251Z,52.72
2023-01-09T07:22:14.631Z,57.00
2023-01-09T07:23:16.147Z,61.35
2023-01-09T07:24:17.583Z,62.60
2023-01-09T07:25:19.042Z,50.20
2023-01-09T07:26:20.467Z,50.63
2023-01-09T07:27:22.235Z,57.65
2023-01-09T07:28:23.790Z,55.20
2023-01-09T07:29:25.168Z,52.17
2023-01-09T07:30:26.664Z,51.63
2023-01-09T07:31:28.302Z,52.10
2023-01-09T07:32:29.755Z,53.63
2023-01-09T07:33:31.212Z,49.50
2023-01-09T07:34:32.638Z,48.58
2023-01-09T07:35:34.186Z,51.83
2023-01-09T07:36:38.570Z,50.90
2023-01-09T07:37:40.022Z,52.28
2023-01-09T07:38:44.530Z,49.17
2023-01-09T07:39:46.154Z,49.92
2023-01-09T07:40:47.578Z,51.50
2023-01-09T07:41:49.007Z,57.70
2023-01-09T07:42:53.393Z,50.53
2023-01-09T07:43:54.805Z,57.53
2023-01-09T07:44:56.212Z,64.80
2023-01-09T07:45:57.653Z,57.78
2023-01-09T07:46:59.075Z,58.35
2023-01-09T07:48:00.549Z,62.72
2023-01-09T07:49:01.936Z,53.53
2023-01-09T07:50:06.630Z,60.72
2023-01-09T07:51:08.498Z,54.47
2023-01-09T07:52:11.957Z,64.05
2023-01-09T07:53:16.260Z,65.05
2023-01-09T07:54:17.809Z,60.47
2023-01-09T07:55:19.235Z,49.70
2023-01-09T07:56:21.185Z,57.03
2023-01-09T07:57:22.627Z,43.80
2023-01-09T07:58:24.059Z,54.67
2023-01-09T07:59:26.208Z,58.70
2023-01-09T08:00:31.242Z,59.80
2023-01-09T08:01:33.937Z,56.72
2023-01-09T08:02:35.476Z,55.42
2023-01-09T08:03:36.964Z,46.47
2023-01-09T08:04:38.366Z,44.35
2023-01-09T08:05:39.784Z,45.95
2023-01-09T08:06:41.248Z,47.03
2023-01-09T08:07:42.924Z,49.42
2023-01-09T08:08:47.072Z,54.97
2023-01-09T08:09:48.467Z,48.15
2023-01-09T08:10:50.126Z,48.70
2023-01-09T08:11:51.591Z,45.33
2023-01-09T08:12:53.201Z,44.67
2023-01-09T08:13:54.732Z,51.85
2023-01-09T08:14:56.254Z,51.13
2023-01-09T08:15:57.668Z,53.72
2023-01-09T08:16:59.134Z,57.22
2023-01-09T08:18:00.604Z,51.65
2023-01-09T08:19:02.039Z,49.75
2023-01-09T08:20:03.780Z,50.58
2023-01-09T08:21:05.321Z,63.72
2023-01-09T08:22:06.768Z,46.13
2023-01-09T08:23:08.218Z,46.58
2023-01-09T08:24:09.891Z,47.15
2023-01-09T08:25:12.637Z,46.72
2023-01-09T08:26:15.548Z,46.00
2023-01-09T08:27:17.025Z,50.28
2023-01-09T08:28:18.469Z,47.28
2023-01-09T08:29:19.908Z,49.28
2023-01-09T08:30:21.536Z,53.72
2023-01-09T08:31:23.074Z,57.97
2023-01-09T08:32:24.549Z,60.30
2023-01-09T08:33:26.660Z,60.45
2023-01-09T08:34:28.299Z,54.65
2023-01-09T08:35:29.861Z,65.15
2023-01-09T08:36:34.035Z,63.95
2023-01-09T08:37:35.512Z,55.90
2023-01-09T08:38:36.971Z,55.92
2023-01-09T08:39:38.367Z,53.05
2023-01-09T08:40:39.823Z,54.47
2023-01-09T08:41:59.552Z,55.13
2023-01-09T08:43:19.534Z,54.13
2023-01-09T08:44:39.653Z,47.67
2023-01-09T08:47:07.079Z,45.03
2023-01-09T08:48:08.568Z,40.30
2023-01-09T08:49:09.987Z,38.22
2023-01-09T08:50:14.459Z,40.10
2023-01-09T08:51:16.113Z,34.80
2023-01-09T08:52:17.647Z,39.85
2023-01-09T08:53:19.105Z,43.13
2023-01-09T08:54:20.604Z,45.83
2023-01-09T08:55:22.143Z,39.70
2023-01-09T08:56:23.584Z,44.85
2023-01-09T08:57:25.151Z,43.97
2023-01-09T08:58:26.603Z,43.42
2023-01-09T08:59:28.090Z,45.03
2023-01-09T09:00:30.045Z,40.30
2023-01-09T09:01:34.644Z,45.50
2023-01-09T09:02:36.129Z,43.70
2023-01-09T09:03:37.551Z,45.83
2023-01-09T09:04:38.942Z,48.03
2023-01-09T09:05:40.460Z,40.60
2023-01-09T09:06:42.001Z,46.20
2023-01-09T09:07:43.716Z,48.42
2023-01-09T09:08:45.165Z,45.63
2023-01-09T09:09:46.617Z,42.20
2023-01-09T09:10:48.108Z,41.05
2023-01-09T09:11:51.995Z,37.80
2023-01-09T09:12:55.639Z,35.58
2023-01-09T09:13:57.897Z,35.42
2023-01-09T09:15:16.532Z,39.40
2023-01-09T09:16:17.971Z,43.47
2023-01-09T09:17:19.388Z,45.83
2023-01-09T09:18:20.783Z,42.92
2023-01-09T09:19:25.342Z,45.15
2023-01-09T09:20:29.832Z,45.25
2023-01-09T09:21:31.522Z,48.28
2023-01-09T09:22:33.002Z,42.90
2023-01-09T09:23:37.310Z,40.90
2023-01-09T09:24:38.974Z,36.90
2023-01-09T09:25:40.420Z,35.65
2023-01-09T09:26:44.393Z,36.45
2023-01-09T09:27:46.310Z,40.10
2023-01-09T09:28:47.721Z,48.17
2023-01-09T09:29:49.153Z,47.13
2023-01-09T09:30:50.605Z,38.72
2023-01-09T09:31:52.096Z,33.20
2023-01-09T09:32:53.828Z,40.33
2023-01-09T09:33:56.565Z,38.22
2023-01-09T09:34:58.402Z,35.88
2023-01-09T09:36:00.521Z,34.80
2023-01-09T09:38:05.672Z,32.30
2023-01-09T09:39:08.556Z,36.28
2023-01-09T09:40:19.979Z,29.25
2023-01-09T09:42:11.621Z,32.80
2023-01-09T09:44:27.262Z,36.70
2023-01-09T09:45:56.605Z,31.20
2023-01-09T09:47:06.925Z,32.20
2023-01-09T09:48:35.023Z,27.08
2023-01-09T09:50:04.424Z,33.35
2023-01-09T09:51:26.105Z,28.15
2023-01-09T09:52:45.171Z,27.02
2023-01-09T09:54:13.609Z,25.52
2023-01-09T09:55:24.567Z,24.58
2023-01-09T09:56:29.817Z,28.70
2023-01-09T09:57:36.896Z,34.65
2023-01-09T09:59:01.766Z,25.52
2023-01-09T10:00:05.735Z,26.75
2023-01-09T10:01:09.277Z,25.55
2023-01-09T10:02:28.816Z,23.67
2023-01-09T10:03:47.236Z,26.33
2023-01-09T10:04:54.740Z,22.90
2023-01-09T10:05:58.677Z,23.75
2023-01-09T10:07:09.796Z,28.58
2023-01-09T10:08:39.210Z,30.65
2023-01-09T10:09:54.268Z,25.13
2023-01-09T10:10:59.079Z,25.73
2023-01-09T10:12:08.857Z,21.65
2023-01-09T10:13:35.795Z,24.20
2023-01-09T10:14:37.411Z,26.00
2023-01-09T10:15:46.234Z,24.48
2023-01-09T10:17:09.461Z,21.52
2023-01-09T10:18:39.134Z,20.75
2023-01-09T10:19:57.924Z,19.17
2023-01-09T10:21:09.273Z,22.17
2023-01-09T10:22:30.380Z,22.38
2023-01-09T10:23:41.004Z,22.38
2023-01-09T10:25:01.103Z,26.33
2023-01-09T10:27:29.602Z,19.95
2023-01-09T10:28:46.268Z,23.13
2023-01-09T10:30:31.881Z,20.70
2023-01-09T10:31:52.619Z,20.00
2023-01-09T10:33:23.239Z,22.58
2023-01-09T10:34:41.398Z,20.13
2023-01-09T10:35:48.129Z,18.67
2023-01-09T10:37:15.395Z,19.17
2023-01-09T10:38:29.105Z,16.42
2023-01-09T10:39:45.649Z,20.20
2023-01-09T10:41:01.387Z,18.63
2023-01-09T10:42:26.348Z,20.25
2023-01-09T10:43:41.927Z,19.98
2023-01-09T10:44:51.017Z,16.70
2023-01-09T10:45:55.767Z,17.13
2023-01-09T10:46:59.570Z,18.20
2023-01-09T10:48:14.228Z,20.98
2023-01-09T10:49:19.758Z,19.13
2023-01-09T10:50:24.574Z,15.63
2023-01-09T10:51:36.047Z,16.38
2023-01-09T10:52:41.450Z,17.23
2023-01-09T10:53:47.665Z,18.95
2023-01-09T10:55:05.022Z,15.30
2023-01-09T10:56:22.544Z,15.38
2023-01-09T10:57:26.864Z,18.98
2023-01-09T10:58:29.475Z,16.52
2023-01-09T10:59:31.066Z,15.57
2023-01-09T11:00:32.508Z,17.60
2023-01-09T11:01:38.182Z,16.42
2023-01-09T11:02:39.896Z,16.95
2023-01-09T11:03:41.456Z,16.25
2023-01-09T11:04:43.468Z,15.85
2023-01-09T11:07:05.767Z,17.30
2023-01-09T11:08:13.054Z,14.85
2023-01-09T11:09:17.279Z,16.63
2023-01-09T11:10:19.150Z,16.83
2023-01-09T11:11:40.723Z,18.58
2023-01-09T11:12:44.850Z,16.55
2023-01-09T11:14:03.765Z,17.13
2023-01-09T11:15:20.189Z,13.40
2023-01-09T11:16:23.511Z,15.88
2023-01-09T11:17:27.915Z,13.57
2023-01-09T11:18:29.422Z,13.95
2023-01-09T11:19:33.265Z,16.23
2023-01-09T11:20:34.761Z,14.18
2023-01-09T11:21:39.476Z,14.65
2023-01-09T11:22:47.675Z,14.05
2023-01-09T11:23:50.038Z,14.73
2023-01-09T11:25:01.505Z,11.00
2023-01-09T11:26:03.613Z,14.38
2023-01-09T11:28:15.369Z,10.85
2023-01-09T11:29:19.863Z,10.80
2023-01-09T11:30:29.150Z,18.52
2023-01-09T11:31:31.069Z,11.80
2023-01-09T11:32:34.020Z,12.02
2023-01-09T11:33:42.793Z,11.00
2023-01-09T11:34:45.972Z,10.40
2023-01-09T11:36:04.027Z,10.30
2023-01-09T11:37:14.042Z,9.68
2023-01-09T11:38:17.213Z,9.60
2023-01-09T11:39:25.252Z,9.40
2023-01-09T11:41:34.534Z,11.93
2023-01-09T11:42:51.423Z,10.75
2023-01-09T11:43:57.811Z,10.02
2023-01-09T11:45:01.467Z,9.02
2023-01-09T11:46:06.347Z,8.57
2023-01-09T11:47:26.750Z,11.77
2023-01-09T11:48:29.829Z,13.52
2023-01-09T11:49:31.708Z,15.40
2023-01-09T11:50:33.147Z,12.10
2023-01-09T11:51:35.715Z,9.73
2023-01-09T11:52:37.132Z,14.50
2023-01-09T11:54:00.168Z,10.40
2023-01-09T11:55:10.524Z,9.55
2023-01-09T11:56:17.568Z,9.07
2023-01-09T11:57:21.436Z,9.40
2023-01-09T11:58:22.933Z,9.02
2023-01-09T11:59:30.155Z,7.82
2023-01-09T12:00:43.782Z,10.05
2023-01-09T12:02:03.274Z,8.57
2023-01-09T12:03:36.820Z,8.68
2023-01-09T12:04:45.932Z,6.88
2023-01-09T12:06:01.962Z,9.07
2023-01-09T12:07:18.692Z,10.35
2023-01-09T12:08:45.784Z,7.93
2023-01-09T12:10:08.608Z,9.43
2023-01-09T12:11:26.223Z,8.77
2023-01-09T12:12:49.979Z,11.13
2023-01-09T12:14:19.728Z,7.15
2023-01-09T12:16:03.167Z,9.38
2023-01-09T12:17:29.243Z,10.45
2023-01-09T12:19:53.894Z,11.05
2023-01-09T12:20:59.661Z,6.20
2023-01-09T12:22:23.200Z,7.47
2023-01-09T12:23:41.774Z,7.90
2023-01-09T12:25:29.260Z,9.98
2023-01-09T12:26:45.782Z,9.05
2023-01-09T12:28:08.878Z,11.57
2023-01-09T12:29:39.764Z,7.28
2023-01-09T12:31:18.825Z,11.77
2023-01-09T12:32:46.536Z,11.82
2023-01-09T12:34:25.493Z,6.68
2023-01-09T12:35:33.052Z,9.05
2023-01-09T12:36:48.646Z,7.40
2023-01-09T12:37:55.921Z,5.60
2023-01-09T12:39:15.160Z,8.13
2023-01-09T12:40:16.540Z,9.80
2023-01-09T12:41:32.995Z,6.15
2023-01-09T12:42:49.581Z,8.52
2023-01-09T12:43:57.133Z,9.80
2023-01-09T12:45:08.606Z,11.60
2023-01-09T12:46:21.657Z,7.88
2023-01-09T12:47:32.288Z,8.20
2023-01-09T12:48:45.495Z,6.32
2023-01-09T12:50:07.108Z,7.60
2023-01-09T12:51:37.650Z,9.45
2023-01-09T12:52:44.028Z,9.88
2023-01-09T12:54:09.422Z,8.77
2023-01-09T12:55:27.271Z,7.35
2023-01-09T12:56:43.138Z,10.23
2023-01-09T12:57:58.391Z,10.20
2023-01-09T12:59:21.018Z,6.25
2023-01-09T13:00:26.801Z,8.45
2023-01-09T13:01:32.523Z,8.38
2023-01-09T13:02:44.854Z,7.57
2023-01-09T13:03:55.008Z,8.32
2023-01-09T13:05:15.801Z,7.68
2023-01-09T13:06:21.111Z,7.47
2023-01-09T13:07:38.738Z,9.07
2023-01-09T13:08:50.387Z,6.32
2023-01-09T13:10:23.358Z,7.95
2023-01-09T13:11:35.248Z,8.55
2023-01-09T13:12:39.808Z,6.15
2023-01-09T13:14:04.297Z,13.05
2023-01-09T13:15:19.419Z,5.97
2023-01-09T13:16:29.322Z,6.00
2023-01-09T13:17:50.346Z,10.68
2023-01-09T13:19:05.892Z,6.45
2023-01-09T13:20:21.017Z,8.77
2023-01-09T13:21:22.872Z,9.52
2023-01-09T13:22:27.925Z,5.50
2023-01-09T13:23:53.986Z,8.02
2023-01-09T13:26:38.590Z,9.45
2023-01-09T13:27:41.681Z,7.65
2023-01-09T13:28:47.639Z,6.05
2023-01-09T13:29:58.971Z,5.78
2023-01-09T13:31:09.436Z,7.18
2023-01-09T13:32:44.215Z,5.35
2023-01-09T13:33:53.641Z,8.48
2023-01-09T13:34:57.581Z,6.13
2023-01-09T13:36:00.167Z,8.77
2023-01-09T13:37:02.009Z,3.58
2023-01-09T13:38:03.846Z,7.05
2023-01-09T13:39:06.291Z,5.38
2023-01-09T13:40:27.021Z,5.75
2023-01-09T13:41:48.471Z,5.85
2023-01-09T13:43:01.156Z,7.47
2023-01-09T13:44:20.629Z,5.63
2023-01-09T13:45:25.888Z,10.05
2023-01-09T13:46:37.361Z,5.82
2023-01-09T13:47:38.802Z,4.78
2023-01-09T13:48:41.592Z,7.60
2023-01-09T13:49:42.987Z,7.13
2023-01-09T13:50:46.421Z,5.05
2023-01-09T13:51:47.812Z,4.32
2023-01-09T13:52:50.463Z,6.20
2023-01-09T13:53:51.944Z,5.47
2023-01-09T13:54:54.829Z,5.82
2023-01-09T13:55:59.658Z,7.90
2023-01-09T13:57:19.512Z,6.60
2023-01-09T13:58:22.727Z,7.30
2023-01-09T13:59:29.944Z,6.00
2023-01-09T14:00:37.634Z,6.65
2023-01-09T14:01:40.865Z,4.15
2023-01-09T14:02:44.680Z,5.47
2023-01-09T14:04:14.678Z,5.07
2023-01-09T14:05:25.331Z,6.93
2023-01-09T14:06:28.135Z,10.88
2023-01-09T14:07:37.621Z,11.82
2023-01-09T14:08:41.844Z,10.38
2023-01-09T14:09:52.417Z,11.77
2023-01-09T14:10:58.093Z,11.50
2023-01-09T14:12:06.652Z,11.52
2023-01-09T14:13:33.077Z,7.28
2023-01-09T14:14:41.209Z,7.95
2023-01-09T14:15:49.500Z,8.75
2023-01-09T14:16:51.468Z,6.50
2023-01-09T14:19:45.846Z,4.65
2023-01-09T14:21:04.719Z,5.43
2023-01-09T14:22:07.879Z,7.18
2023-01-09T14:23:39.027Z,6.78
2023-01-09T14:24:46.976Z,7.28
2023-01-09T14:25:50.104Z,6.13
2023-01-09T14:26:57.074Z,7.47
2023-01-09T14:27:59.187Z,8.35
2023-01-09T14:29:36.198Z,9.15
2023-01-09T14:30:38.686Z,5.57
2023-01-09T14:31:40.106Z,10.35
2023-01-09T14:32:43.541Z,6.47
2023-01-09T14:33:47.387Z,10.02
2023-01-09T14:34:52.337Z,5.85
2023-01-09T14:35:56.521Z,8.05
2023-01-09T14:37:01.362Z,7.18
2023-01-09T14:38:17.147Z,6.13
2023-01-09T14:39:23.634Z,5.72
2023-01-09T14:40:26.074Z,5.53
2023-01-09T14:41:56.468Z,6.78
2023-01-09T14:43:04.908Z,10.05
2023-01-09T14:44:19.622Z,6.40
2023-01-09T14:45:27.124Z,6.53